sensor_id;sensor_type;location;lat;lon;timestamp;pressure;altitude;pressure_sealevel;temperature;humidity
58775;BME280;44545;47.480;19.024;2023-11-21T04:22:54;99625.41;;;5.01;100.00
58775;BME280;44545;47.480;19.024;2023-11-21T04:25:57;99627.44;;;4.92;100.00
58775;BME280;44545;47.480;19.024;2023-11-21T04:28:59;99627.72;;;5.10;100.00
58775;BME280;44545;47.480;19.024;2023-11-21T04:32:02;99625.00;;;5.35;100.00
58775;BME280;44545;47.480;19.024;2023-11-21T04:35:05;99619.81;;;5.35;100.00
58775;BME280;44545;47.480;19.024;2023-11-21T04:38:08;99619.31;;;5.40;100.00
58775;BME280;44545;47.480;19.024;2023-11-21T04:41:11;99612.84;;;5.34;100.00
58775;BME280;44545;47.480;19.024;2023-11-21T04:44:14;99622.88;;;5.42;100.00
58775;BME280;44545;47.480;19.024;2023-11-21T04:47:18;99618.38;;;5.53;100.00
58775;BME280;44545;47.480;19.024;2023-11-21T04:50:22;99629.53;;;5.67;100.00
58775;BME280;44545;47.480;19.024;2023-11-21T04:53:24;99635.06;;;5.58;100.00
58775;BME280;44545;47.480;19.024;2023-11-21T04:56:26;99650.69;;;5.47;100.00
58775;BME280;44545;47.480;19.024;2023-11-21T04:59:29;99650.44;;;5.42;100.00
58775;BME280;44545;47.480;19.024;2023-11-21T05:02:32;99651.03;;;5.38;100.00
58775;BME280;44545;47.480;19.024;2023-11-21T05:05:37;99659.06;;;5.42;100.00
58775;BME280;44545;47.480;19.024;2023-11-21T05:08:40;99662.03;;;5.49;100.00
58775;BME280;44545;47.480;19.024;2023-11-21T05:11:43;99662.56;;;5.71;100.00
58775;BME280;44545;47.480;19.024;2023-11-21T05:14:45;99660.16;;;5.87;100.00
58775;BME280;44545;47.480;19.024;2023-11-21T05:17:48;99656.72;;;6.02;100.00
58775;BME280;44545;47.480;19.024;2023-11-21T05:20:52;99650.41;;;6.26;100.00
58775;BME280;44545;47.480;19.024;2023-11-21T05:23:55;99652.84;;;6.38;100.00
58775;BME280;44545;47.480;19.024;2023-11-21T05:26:58;99637.56;;;6.28;100.00
58775;BME280;44545;47.480;19.024;2023-11-21T05:30:04;99640.78;;;6.39;100.00
58775;BME280;44545;47.480;19.024;2023-11-21T05:33:07;99639.38;;;6.59;100.00
58775;BME280;44545;47.480;19.024;2023-11-21T05:36:10;99645.44;;;6.59;100.00
58775;BME280;44545;47.480;19.024;2023-11-21T05:39:13;99644.63;;;6.31;100.00
58775;BME280;44545;47.480;19.024;2023-11-21T05:42:16;99649.78;;;6.16;100.00
58775;BME280;44545;47.480;19.024;2023-11-21T05:45:19;99643.50;;;6.12;100.00
58775;BME280;44545;47.480;19.024;2023-11-21T05:48:21;99635.78;;;6.42;100.00
58775;BME280;44545;47.480;19.024;2023-11-21T05:51:24;99647.47;;;6.35;100.00
58775;BME280;44545;47.480;19.024;2023-11-21T05:54:27;99640.41;;;6.33;100.00
58775;BME280;44545;47.480;19.024;2023-11-21T05:57:29;99654.72;;;6.41;100.00
58775;BME280;44545;47.480;19.024;2023-11-21T06:00:32;99643.19;;;6.65;100.00
58775;BME280;44545;47.480;19.024;2023-11-21T06:03:35;99652.25;;;7.03;100.00
58775;BME280;44545;47.480;19.024;2023-11-21T06:06:38;99668.06;;;7.08;100.00
58775;BME280;44545;47.480;19.024;2023-11-21T06:09:41;99675.00;;;7.24;100.00
58775;BME280;44545;47.480;19.024;2023-11-21T06:12:43;99680.25;;;7.40;100.00
58775;BME280;44545;47.480;19.024;2023-11-21T06:15:46;99676.81;;;7.41;100.00
58775;BME280;44545;47.480;19.024;2023-11-21T06:18:48;99682.13;;;7.43;100.00
58775;BME280;44545;47.480;19.024;2023-11-21T06:21:50;99696.06;;;7.45;100.00
58775;BME280;44545;47.480;19.024;2023-11-21T06:24:52;99699.62;;;7.47;100.00
58775;BME280;44545;47.480;19.024;2023-11-21T06:27:55;99700.72;;;7.35;100.00
58775;BME280;44545;47.480;19.024;2023-11-21T06:30:58;99705.41;;;7.26;100.00
58775;BME280;44545;47.480;19.024;2023-11-21T06:34:01;99706.47;;;7.30;100.00
58775;BME280;44545;47.480;19.024;2023-11-21T06:37:03;99725.63;;;7.17;100.00
58775;BME280;44545;47.480;19.024;2023-11-21T06:40:06;99728.75;;;7.11;100.00
58775;BME280;44545;47.480;19.024;2023-11-21T06:43:09;99732.53;;;7.16;100.00
58775;BME280;44545;47.480;19.024;2023-11-21T06:46:12;99737.00;;;7.19;100.00
58775;BME280;44545;47.480;19.024;2023-11-21T06:49:18;99737.06;;;7.21;100.00
58775;BME280;44545;47.480;19.024;2023-11-21T06:52:20;99745.09;;;7.25;100.00
58775;BME280;44545;47.480;19.024;2023-11-21T06:55:23;99741.91;;;7.29;100.00
58775;BME280;44545;47.480;19.024;2023-11-21T06:58:25;99741.69;;;7.26;100.00
58775;BME280;44545;47.480;19.024;2023-11-21T07:01:27;99731.31;;;7.41;100.00
58775;BME280;44545;47.480;19.024;2023-11-21T07:04:31;99740.03;;;7.58;100.00
58775;BME280;44545;47.480;19.024;2023-11-21T07:07:33;99735.00;;;7.61;100.00
58775;BME280;44545;47.480;19.024;2023-11-21T07:10:38;99736.28;;;7.53;100.00
58775;BME280;44545;47.480;19.024;2023-11-21T07:13:40;99740.22;;;7.46;100.00
58775;BME280;44545;47.480;19.024;2023-11-21T07:16:43;99743.19;;;7.52;100.00
58775;BME280;44545;47.480;19.024;2023-11-21T07:19:45;99751.47;;;7.62;100.00
58775;BME280;44545;47.480;19.024;2023-11-21T07:22:48;99743.78;;;7.63;100.00
58775;BME280;44545;47.480;19.024;2023-11-21T07:25:50;99753.69;;;7.70;100.00
58775;BME280;44545;47.480;19.024;2023-11-21T07:28:54;99755.78;;;7.46;100.00
58775;BME280;44545;47.480;19.024;2023-11-21T07:31:58;99752.72;;;7.22;100.00
58775;BME280;44545;47.480;19.024;2023-11-21T07:35:02;99743.56;;;7.29;100.00
58775;BME280;44545;47.480;19.024;2023-11-21T07:38:05;99754.66;;;7.26;100.00
58775;BME280;44545;47.480;19.024;2023-11-21T07:41:08;99752.44;;;7.18;100.00
58775;BME280;44545;47.480;19.024;2023-11-21T07:44:27;99750.13;;;7.22;100.00
58775;BME280;44545;47.480;19.024;2023-11-21T07:47:29;99753.44;;;7.20;100.00
58775;BME280;44545;47.480;19.024;2023-11-21T07:50:32;99759.06;;;7.12;100.00
58775;BME280;44545;47.480;19.024;2023-11-21T07:53:35;99752.22;;;7.44;100.00
58775;BME280;44545;47.480;19.024;2023-11-21T07:56:37;99751.41;;;7.76;100.00
58775;BME280;44545;47.480;19.024;2023-11-21T07:59:40;99745.62;;;7.97;100.00
58775;BME280;44545;47.480;19.024;2023-11-21T08:02:43;99748.78;;;7.91;100.00
58775;BME280;44545;47.480;19.024;2023-11-21T08:05:48;99737.03;;;8.14;100.00
58775;BME280;44545;47.480;19.024;2023-11-21T08:08:51;99743.69;;;8.09;100.00
58775;BME280;44545;47.480;19.024;2023-11-21T08:11:54;99746.31;;;8.25;100.00
58775;BME280;44545;47.480;19.024;2023-11-21T08:14:56;99746.38;;;8.27;100.00
58775;BME280;44545;47.480;19.024;2023-11-21T08:17:59;99752.25;;;8.39;100.00
58775;BME280;44545;47.480;19.024;2023-11-21T08:21:01;99751.06;;;8.34;100.00
58775;BME280;44545;47.480;19.024;2023-11-21T08:24:06;99747.53;;;8.49;100.00
58775;BME280;44545;47.480;19.024;2023-11-21T08:27:12;99738.91;;;8.50;100.00
58775;BME280;44545;47.480;19.024;2023-11-21T08:30:18;99732.66;;;8.62;100.00
58775;BME280;44545;47.480;19.024;2023-11-21T08:33:21;99729.50;;;8.52;100.00
58775;BME280;44545;47.480;19.024;2023-11-21T08:36:25;99732.00;;;8.34;100.00
58775;BME280;44545;47.480;19.024;2023-11-21T08:39:27;99735.59;;;8.36;100.00
58775;BME280;44545;47.480;19.024;2023-11-21T08:42:30;99726.66;;;8.31;100.00
58775;BME280;44545;47.480;19.024;2023-11-21T08:45:32;99727.78;;;8.36;100.00
58775;BME280;44545;47.480;19.024;2023-11-21T08:48:37;99729.84;;;8.41;100.00
58775;BME280;44545;47.480;19.024;2023-11-21T08:51:39;99721.38;;;8.45;100.00
58775;BME280;44545;47.480;19.024;2023-11-21T08:54:42;99722.28;;;8.46;100.00
58775;BME280;44545;47.480;19.024;2023-11-21T08:57:46;99726.37;;;8.75;100.00
58775;BME280;44545;47.480;19.024;2023-11-21T09:00:52;99741.50;;;8.66;100.00
58775;BME280;44545;47.480;19.024;2023-11-21T09:03:54;99736.53;;;8.71;100.00
58775;BME280;44545;47.480;19.024;2023-11-21T09:06:57;99741.19;;;8.60;100.00
58775;BME280;44545;47.480;19.024;2023-11-21T09:10:05;99739.16;;;8.54;100.00
58775;BME280;44545;47.480;19.024;2023-11-21T09:13:09;99740.69;;;8.51;100.00
58775;BME280;44545;47.480;19.024;2023-11-21T09:16:13;99733.87;;;8.53;100.00
58775;BME280;44545;47.480;19.024;2023-11-21T09:19:16;99726.97;;;8.53;100.00
58775;BME280;44545;47.480;19.024;2023-11-21T09:22:18;99725.28;;;8.54;100.00
58775;BME280;44545;47.480;19.024;2023-11-21T09:25:21;99724.38;;;8.53;100.00
58775;BME280;44545;47.480;19.024;2023-11-21T09:28:23;99719.53;;;8.77;100.00
58775;BME280;44545;47.480;19.024;2023-11-21T09:31:26;99721.06;;;8.90;100.00
58775;BME280;44545;47.480;19.024;2023-11-21T09:34:30;99717.06;;;8.97;100.00
58775;BME280;44545;47.480;19.024;2023-11-21T09:37:34;99717.63;;;8.91;100.00
58775;BME280;44545;47.480;19.024;2023-11-21T09:40:40;99704.25;;;8.83;100.00
58775;BME280;44545;47.480;19.024;2023-11-21T09:43:45;99702.25;;;8.78;100.00
58775;BME280;44545;47.480;19.024;2023-11-21T09:46:49;99698.75;;;8.77;100.00
58775;BME280;44545;47.480;19.024;2023-11-21T09:49:54;99686.59;;;8.76;100.00
58775;BME280;44545;47.480;19.024;2023-11-21T09:56:18;99682.28;;;8.77;100.00
58775;BME280;44545;47.480;19.024;2023-11-21T09:59:30;99684.72;;;8.74;100.00
58775;BME280;44545;47.480;19.024;2023-11-21T10:02:33;99687.16;;;8.88;100.00
58775;BME280;44545;47.480;19.024;2023-11-21T10:05:40;99687.56;;;9.32;100.00
58775;BME280;44545;47.480;19.024;2023-11-21T10:08:43;99676.31;;;9.51;100.00
58775;BME280;44545;47.480;19.024;2023-11-21T10:11:58;99681.84;;;9.76;100.00
58775;BME280;44545;47.480;19.024;2023-11-21T10:15:03;99680.31;;;9.82;100.00
58775;BME280;44545;47.480;19.024;2023-11-21T10:18:09;99677.56;;;9.59;100.00
58775;BME280;44545;47.480;19.024;2023-11-21T10:21:11;99672.69;;;9.47;100.00
58775;BME280;44545;47.480;19.024;2023-11-21T10:24:14;99680.03;;;9.38;100.00
58775;BME280;44545;47.480;19.024;2023-11-21T10:27:17;99672.53;;;9.26;100.00
58775;BME280;44545;47.480;19.024;2023-11-21T10:30:21;99668.16;;;9.25;100.00
58775;BME280;44545;47.480;19.024;2023-11-21T10:33:29;99674.19;;;9.24;100.00
58775;BME280;44545;47.480;19.024;2023-11-21T10:36:32;99669.94;;;9.26;100.00
58775;BME280;44545;47.480;19.024;2023-11-21T10:39:35;99657.59;;;9.40;100.00
58775;BME280;44545;47.480;19.024;2023-11-21T10:42:41;99667.69;;;9.34;100.00
58775;BME280;44545;47.480;19.024;2023-11-21T10:45:44;99660.13;;;9.39;100.00
58775;BME280;44545;47.480;19.024;2023-11-21T10:48:54;99665.69;;;9.46;100.00
58775;BME280;44545;47.480;19.024;2023-11-21T10:51:58;99671.34;;;9.38;100.00
58775;BME280;44545;47.480;19.024;2023-11-21T10:55:00;99667.41;;;9.46;100.00
58775;BME280;44545;47.480;19.024;2023-11-21T10:58:05;99662.31;;;9.49;100.00
58775;BME280;44545;47.480;19.024;2023-11-21T11:01:09;99663.81;;;9.44;100.00
58775;BME280;44545;47.480;19.024;2023-11-21T11:04:14;99665.91;;;9.51;100.00
58775;BME280;44545;47.480;19.024;2023-11-21T11:07:21;99664.53;;;9.59;100.00
58775;BME280;44545;47.480;19.024;2023-11-21T11:10:26;99664.84;;;9.65;100.00
58775;BME280;44545;47.480;19.024;2023-11-21T11:13:30;99657.78;;;9.63;100.00
58775;BME280;44545;47.480;19.024;2023-11-21T11:16:33;99666.59;;;9.66;100.00
58775;BME280;44545;47.480;19.024;2023-11-21T11:19:37;99664.94;;;9.49;100.00
58775;BME280;44545;47.480;19.024;2023-11-21T11:22:48;99655.56;;;9.52;100.00
58775;BME280;44545;47.480;19.024;2023-11-21T11:29:33;99647.47;;;9.46;100.00
58775;BME280;44545;47.480;19.024;2023-11-21T11:36:22;99647.62;;;9.69;100.00
58775;BME280;44545;47.480;19.024;2023-11-21T11:39:42;99642.66;;;9.93;100.00
58775;BME280;44545;47.480;19.024;2023-11-21T11:42:56;99631.88;;;10.05;100.00
58775;BME280;44545;47.480;19.024;2023-11-21T11:46:03;99630.31;;;9.89;100.00
58775;BME280;44545;47.480;19.024;2023-11-21T11:49:09;99630.84;;;9.82;100.00
58775;BME280;44545;47.480;19.024;2023-11-21T11:52:35;99629.00;;;9.79;100.00
58775;BME280;44545;47.480;19.024;2023-11-21T11:55:37;99625.94;;;9.88;100.00
58775;BME280;44545;47.480;19.024;2023-11-21T11:58:41;99627.84;;;9.92;100.00
58775;BME280;44545;47.480;19.024;2023-11-21T12:01:45;99630.41;;;9.90;100.00
58775;BME280;44545;47.480;19.024;2023-11-21T12:04:49;99619.06;;;9.90;100.00
58775;BME280;44545;47.480;19.024;2023-11-21T12:07:56;99616.53;;;9.91;100.00
58775;BME280;44545;47.480;19.024;2023-11-21T12:11:01;99613.72;;;9.87;100.00
58775;BME280;44545;47.480;19.024;2023-11-21T12:14:03;99609.00;;;9.78;100.00
58775;BME280;44545;47.480;19.024;2023-11-21T12:17:07;99619.22;;;9.73;100.00
58775;BME280;44545;47.480;19.024;2023-11-21T12:20:12;99608.72;;;9.72;100.00
58775;BME280;44545;47.480;19.024;2023-11-21T12:23:20;99621.81;;;9.73;100.00
58775;BME280;44545;47.480;19.024;2023-11-21T12:26:24;99620.47;;;9.62;100.00
58775;BME280;44545;47.480;19.024;2023-11-21T12:29:26;99621.38;;;9.64;100.00
58775;BME280;44545;47.480;19.024;2023-11-21T12:32:31;99614.53;;;9.66;100.00
58775;BME280;44545;47.480;19.024;2023-11-21T12:35:35;99605.22;;;9.71;100.00
58775;BME280;44545;47.480;19.024;2023-11-21T12:38:37;99602.63;;;9.91;100.00
58775;BME280;44545;47.480;19.024;2023-11-21T12:41:40;99594.53;;;9.85;100.00
58775;BME280;44545;47.480;19.024;2023-11-21T12:44:46;99600.78;;;9.88;100.00
58775;BME280;44545;47.480;19.024;2023-11-21T12:47:55;99596.22;;;9.83;100.00
58775;BME280;44545;47.480;19.024;2023-11-21T12:50:59;99599.34;;;9.75;100.00
58775;BME280;44545;47.480;19.024;2023-11-21T12:54:05;99597.97;;;9.84;100.00
58775;BME280;44545;47.480;19.024;2023-11-21T12:57:09;99602.63;;;9.91;100.00
58775;BME280;44545;47.480;19.024;2023-11-21T13:00:12;99602.75;;;9.94;100.00
58775;BME280;44545;47.480;19.024;2023-11-21T13:03:26;99592.22;;;9.91;100.00
58775;BME280;44545;47.480;19.024;2023-11-21T13:06:31;99598.09;;;9.87;100.00
58775;BME280;44545;47.480;19.024;2023-11-21T13:09:37;99598.94;;;9.86;100.00
58775;BME280;44545;47.480;19.024;2023-11-21T13:12:45;99598.94;;;9.86;100.00
58775;BME280;44545;47.480;19.024;2023-11-21T13:15:55;99592.78;;;9.84;100.00
58775;BME280;44545;47.480;19.024;2023-11-21T13:18:59;99592.22;;;10.10;100.00
58775;BME280;44545;47.480;19.024;2023-11-21T13:22:01;99599.25;;;10.32;100.00
58775;BME280;44545;47.480;19.024;2023-11-21T13:25:06;99595.91;;;10.56;100.00
58775;BME280;44545;47.480;19.024;2023-11-21T13:28:09;99594.19;;;10.56;100.00
58775;BME280;44545;47.480;19.024;2023-11-21T13:31:13;99596.34;;;10.67;100.00
58775;BME280;44545;47.480;19.024;2023-11-21T13:34:29;99602.44;;;10.67;100.00
58775;BME280;44545;47.480;19.024;2023-11-21T13:37:35;99601.69;;;10.70;100.00
58775;BME280;44545;47.480;19.024;2023-11-21T13:40:40;99618.19;;;10.70;100.00
58775;BME280;44545;47.480;19.024;2023-11-21T13:43:48;99614.78;;;10.71;100.00
58775;BME280;44545;47.480;19.024;2023-11-21T13:47:00;99609.69;;;10.74;100.00
58775;BME280;44545;47.480;19.024;2023-11-21T13:50:02;99604.97;;;10.66;100.00
58775;BME280;44545;47.480;19.024;2023-11-21T13:53:05;99610.34;;;10.69;100.00
58775;BME280;44545;47.480;19.024;2023-11-21T13:56:28;99612.03;;;10.68;100.00
58775;BME280;44545;47.480;19.024;2023-11-21T13:59:31;99610.06;;;10.62;100.00
58775;BME280;44545;47.480;19.024;2023-11-21T14:02:34;99610.94;;;10.42;100.00
58775;BME280;44545;47.480;19.024;2023-11-21T14:05:42;99618.19;;;10.28;100.00
58775;BME280;44545;47.480;19.024;2023-11-21T14:08:45;99616.91;;;10.20;100.00
58775;BME280;44545;47.480;19.024;2023-11-21T14:11:57;99621.25;;;10.19;100.00
58775;BME280;44545;47.480;19.024;2023-11-21T14:15:00;99628.69;;;10.10;100.00
58775;BME280;44545;47.480;19.024;2023-11-21T14:18:05;99628.37;;;10.04;100.00
58775;BME280;44545;47.480;19.024;2023-11-21T14:21:10;99633.94;;;9.92;100.00
58775;BME280;44545;47.480;19.024;2023-11-21T14:24:13;99636.34;;;9.88;100.00
58775;BME280;44545;47.480;19.024;2023-11-21T14:27:15;99640.88;;;9.72;100.00
58775;BME280;44545;47.480;19.024;2023-11-21T14:30:18;99637.94;;;9.47;100.00
58775;BME280;44545;47.480;19.024;2023-11-21T14:33:21;99643.84;;;9.43;100.00
58775;BME280;44545;47.480;19.024;2023-11-21T14:36:25;99645.72;;;9.27;100.00
58775;BME280;44545;47.480;19.024;2023-11-21T14:39:28;99649.97;;;9.25;100.00
58775;BME280;44545;47.480;19.024;2023-11-21T14:42:31;99652.44;;;9.04;100.00
58775;BME280;44545;47.480;19.024;2023-11-21T14:45:33;99645.19;;;8.99;100.00
58775;BME280;44545;47.480;19.024;2023-11-21T14:48:36;99639.19;;;8.82;100.00
58775;BME280;44545;47.480;19.024;2023-11-21T14:51:49;99644.66;;;8.70;100.00
58775;BME280;44545;47.480;19.024;2023-11-21T14:55:10;99647.47;;;8.57;100.00
58775;BME280;44545;47.480;19.024;2023-11-21T14:58:34;99654.41;;;8.40;100.00
58775;BME280;44545;47.480;19.024;2023-11-21T15:01:38;99652.72;;;8.24;100.00
58775;BME280;44545;47.480;19.024;2023-11-21T15:04:56;99659.13;;;8.14;100.00
58775;BME280;44545;47.480;19.024;2023-11-21T15:08:04;99663.28;;;7.94;100.00
58775;BME280;44545;47.480;19.024;2023-11-21T15:11:23;99666.91;;;7.81;100.00
58775;BME280;44545;47.480;19.024;2023-11-21T15:14:32;99648.44;;;7.75;100.00
58775;BME280;44545;47.480;19.024;2023-11-21T15:17:38;99656.94;;;7.73;100.00
58775;BME280;44545;47.480;19.024;2023-11-21T15:20:45;99664.78;;;7.74;100.00
58775;BME280;44545;47.480;19.024;2023-11-21T15:23:48;99656.66;;;7.52;100.00
58775;BME280;44545;47.480;19.024;2023-11-21T15:26:50;99652.72;;;7.58;100.00
58775;BME280;44545;47.480;19.024;2023-11-21T15:29:53;99654.66;;;7.63;100.00
58775;BME280;44545;47.480;19.024;2023-11-21T15:32:56;99658.03;;;7.45;100.00
58775;BME280;44545;47.480;19.024;2023-11-21T15:35:58;99662.09;;;7.40;100.00
58775;BME280;44545;47.480;19.024;2023-11-21T15:39:03;99654.16;;;7.37;100.00
58775;BME280;44545;47.480;19.024;2023-11-21T15:42:06;99659.97;;;7.33;100.00
58775;BME280;44545;47.480;19.024;2023-11-21T15:45:09;99664.16;;;7.31;100.00
58775;BME280;44545;47.480;19.024;2023-11-21T15:48:12;99668.03;;;7.23;100.00
58775;BME280;44545;47.480;19.024;2023-11-21T15:51:15;99654.09;;;7.21;100.00
58775;BME280;44545;47.480;19.024;2023-11-21T15:54:19;99665.00;;;7.15;100.00
58775;BME280;44545;47.480;19.024;2023-11-21T15:57:23;99661.09;;;7.07;100.00
58775;BME280;44545;47.480;19.024;2023-11-21T16:00:26;99657.44;;;7.03;100.00
58775;BME280;44545;47.480;19.024;2023-11-21T16:03:29;99658.53;;;7.07;100.00
58775;BME280;44545;47.480;19.024;2023-11-21T16:06:35;99652.09;;;7.00;100.00
58775;BME280;44545;47.480;19.024;2023-11-21T16:09:41;99660.38;;;7.09;100.00
58775;BME280;44545;47.480;19.024;2023-11-21T16:12:45;99658.09;;;6.84;100.00
58775;BME280;44545;47.480;19.024;2023-11-21T16:15:47;99668.81;;;6.76;100.00
58775;BME280;44545;47.480;19.024;2023-11-21T16:18:53;99665.87;;;6.69;100.00
58775;BME280;44545;47.480;19.024;2023-11-21T16:21:55;99670.25;;;6.70;100.00
58775;BME280;44545;47.480;19.024;2023-11-21T16:24:58;99666.88;;;6.71;100.00
58775;BME280;44545;47.480;19.024;2023-11-21T16:28:00;99669.34;;;6.55;100.00
58775;BME280;44545;47.480;19.024;2023-11-21T16:31:06;99668.19;;;6.50;100.00
58775;BME280;44545;47.480;19.024;2023-11-21T16:34:13;99670.88;;;6.51;100.00
58775;BME280;44545;47.480;19.024;2023-11-21T16:37:22;99668.31;;;6.51;100.00
58775;BME280;44545;47.480;19.024;2023-11-21T16:40:24;99659.53;;;6.35;100.00
